Time;durP1;ratioP1;P1;durP2;ratioP2;P2;SDS_P1;SDS_P2;PMS_P1;PMS_P2;Temp;Humidity;BMP_temperature;BMP_pressure;BME280_temperature;BME280_humidity;BME280_pressure;Samples;Min_cycle;Max_cycle;Signal;HPM_P1;HPM_P2
2021/03/28 00:00:23;;;;;;;1.17;0.70;;;;;;;9.35;41.47;100536.41;4983236;23;20531;-77
2021/03/28 00:04:49;;;;;;;3.37;0.90;;;;;;;9.22;42.24;100535.25;4989005;23;20200;-78
2021/03/28 00:13:27;;;;;;;2.13;0.90;;;;;;;9.22;42.84;100547.78;4900201;29;20218;-78
2021/03/28 00:17:04;;;;;;;1.07;0.70;;;;;;;9.09;42.44;100521.75;4901554;29;20215;-77
2021/03/28 00:20:50;;;;;;;2.67;0.90;;;;;;;9.26;42.71;100536.53;4927644;23;20272;-80
2021/03/28 00:24:29;;;;;;;2.30;0.83;;;;;;;9.22;42.78;100547.78;4945620;23;20234;-80
2021/03/28 00:28:02;;;;;;;1.97;0.77;;;;;;;9.14;43.24;100556.75;4968316;23;20287;-80
2021/03/28 00:31:53;;;;;;;2.03;0.80;;;;;;;9.17;42.71;100569.75;4958689;28;20228;-80
2021/03/28 00:35:55;;;;;;;2.10;0.70;;;;;;;9.17;42.91;100563.56;5126375;23;20667;-76
2021/03/28 00:39:51;;;;;;;2.70;0.90;;;;;;;9.21;42.76;100564.84;4931525;29;20210;-77
2021/03/28 00:43:56;;;;;;;3.17;0.83;;;;;;;9.22;42.91;100555.81;4914322;23;20225;-77
2021/03/28 00:47:28;;;;;;;1.77;0.87;;;;;;;9.21;42.98;100573.69;4988588;23;20326;-77
2021/03/28 00:51:19;;;;;;;3.03;0.87;;;;;;;9.15;43.12;100579.78;4964508;29;20263;-77
2021/03/28 00:54:46;;;;;;;2.27;0.93;;;;;;;9.17;44.39;100588.47;4947815;29;20540;-77
2021/03/28 00:58:35;;;;;;;3.03;1.50;;;;;;;8.89;50.48;100592.00;4976794;29;20243;-80
2021/03/28 01:02:08;;;;;;;1.93;1.10;;;;;;;8.65;51.79;100609.13;4977308;28;20228;-80
2021/03/28 01:05:34;;;;;;;1.90;1.20;;;;;;;8.45;52.24;100606.16;4928990;23;20234;-80
2021/03/28 01:09:29;;;;;;;2.60;1.23;;;;;;;8.11;52.29;100587.94;4974903;23;20253;-80
2021/03/28 01:17:01;;;;;;;3.13;1.10;;;;;;;8.17;51.86;100655.75;4939044;29;20194;-80
2021/03/28 01:21:12;;;;;;;3.43;1.13;;;;;;;8.02;51.99;100658.41;4907665;29;20225;-80
2021/03/28 01:24:44;;;;;;;1.40;1.07;;;;;;;7.85;52.39;100662.19;4961379;23;20244;-80
2021/03/28 01:29:05;;;;;;;1.47;0.80;;;;;;;7.88;51.22;100660.00;4958484;23;21352;-80
2021/03/28 01:32:25;;;;;;;2.90;0.90;;;;;;;7.76;51.51;100669.41;4962313;23;20510;-80
2021/03/28 01:36:03;;;;;;;1.97;1.00;;;;;;;7.77;51.43;100668.41;4995277;28;20259;-80
2021/03/28 01:40:04;;;;;;;2.60;1.00;;;;;;;7.65;51.53;100672.47;4979835;23;20223;-80
2021/03/28 01:43:47;;;;;;;3.63;1.00;;;;;;;7.68;51.69;100689.97;4948458;29;20224;-80
2021/03/28 01:47:15;;;;;;;1.63;0.90;;;;;;;7.63;51.33;100682.50;5083817;23;20254;-80
2021/03/28 01:50:42;;;;;;;2.10;0.90;;;;;;;7.56;51.40;100689.50;4973003;23;20244;-80
2021/03/28 01:54:31;;;;;;;1.97;0.80;;;;;;;7.49;51.68;100689.41;4988639;23;20237;-80
2021/03/28 01:58:15;;;;;;;2.53;0.80;;;;;;;7.43;51.98;100695.41;4954567;29;20201;-80
2021/03/28 02:02:00;;;;;;;2.47;0.80;;;;;;;7.38;52.39;100699.59;4967053;23;20240;-80
2021/03/28 02:05:32;;;;;;;2.60;0.80;;;;;;;7.43;52.26;100707.91;4962020;23;20240;-80
2021/03/28 02:09:06;;;;;;;2.97;0.70;;;;;;;7.37;52.03;100711.28;4999973;23;20260;-80
2021/03/28 02:12:41;;;;;;;1.00;0.70;;;;;;;7.37;52.79;100714.75;4933957;29;20238;-80
2021/03/28 02:16:11;;;;;;;1.07;0.70;;;;;;;7.35;53.01;100729.28;4936420;29;20202;-80
2021/03/28 02:20:34;;;;;;;2.03;0.87;;;;;;;7.21;52.84;100714.00;4934983;29;20224;-80
2021/03/28 02:23:52;;;;;;;2.17;1.00;;;;;;;7.19;53.58;100737.31;4894663;23;20336;-80
2021/03/28 02:27:48;;;;;;;1.90;1.00;;;;;;;7.17;53.79;100760.66;4978688;28;20251;-80
2021/03/28 02:31:28;;;;;;;1.67;0.80;;;;;;;6.85;53.67;100708.28;4979950;23;20606;-80
2021/03/28 02:35:24;;;;;;;2.47;0.77;;;;;;;7.10;54.53;100744.50;4953336;23;20235;-80
2021/03/28 02:39:14;;;;;;;1.77;0.90;;;;;;;7.09;54.61;100748.19;4983040;23;20236;-80
2021/03/28 02:43:03;;;;;;;2.80;1.00;;;;;;;6.95;55.69;100757.69;4972707;29;20224;-80
2021/03/28 02:46:44;;;;;;;2.73;0.90;;;;;;;6.94;55.09;100750.72;5010785;23;20231;-79
2021/03/28 02:51:03;;;;;;;1.43;0.80;;;;;;;6.82;56.02;100767.19;4956206;29;20225;-80
2021/03/28 02:55:11;;;;;;;1.97;0.70;;;;;;;6.77;56.23;100758.88;4878983;29;20331;-80
2021/03/28 02:59:06;;;;;;;1.83;0.90;;;;;;;6.69;55.99;100756.22;4824401;29;20276;-80
2021/03/28 03:03:21;;;;;;;2.67;1.00;;;;;;;6.82;55.33;100764.53;4964907;23;20251;-80
2021/03/28 03:06:51;;;;;;;2.40;0.77;;;;;;;6.60;56.10;100769.53;4999671;23;20239;-81
2021/03/28 03:10:36;;;;;;;1.40;0.70;;;;;;;6.54;56.11;100766.69;4988689;28;20235;-80
2021/03/28 03:17:39;;;;;;;1.43;0.90;;;;;;;6.49;55.98;100780.50;4932752;29;20277;-80
2021/03/28 03:21:22;;;;;;;1.90;0.80;;;;;;;6.40;56.33;100786.00;4936418;29;20210;-79
2021/03/28 03:25:24;;;;;;;2.30;0.80;;;;;;;6.19;56.71;100770.50;4934998;29;20170;-80
2021/03/28 03:28:45;;;;;;;2.07;0.87;;;;;;;6.31;56.32;100792.28;4957948;23;20239;-80
2021/03/28 03:32:24;;;;;;;3.23;0.83;;;;;;;6.21;57.52;100792.44;4975774;23;20252;-80
2021/03/28 03:35:56;;;;;;;3.07;0.90;;;;;;;6.17;57.41;100794.59;4957046;29;20204;-80
2021/03/28 03:39:18;;;;;;;3.00;0.97;;;;;;;6.13;57.55;100800.41;4957232;29;20210;-80
2021/03/28 03:43:21;;;;;;;2.50;0.90;;;;;;;6.10;57.71;100803.41;4954661;29;20219;-79
2021/03/28 03:47:33;;;;;;;1.73;0.60;;;;;;;6.09;57.59;100797.25;5008888;23;20231;-79
2021/03/28 03:51:15;;;;;;;1.70;0.70;;;;;;;6.08;57.44;100803.56;4970118;23;20239;-80
2021/03/28 03:54:49;;;;;;;3.63;0.80;;;;;;;6.02;57.92;100804.19;4972484;29;20208;-79
2021/03/28 03:58:33;;;;;;;3.20;1.00;;;;;;;6.06;57.84;100804.75;4977409;23;20209;-80
2021/03/28 04:02:00;;;;;;;2.77;0.90;;;;;;;5.89;58.09;100798.50;4923878;29;20214;-80
2021/03/28 04:05:52;;;;;;;2.40;0.87;;;;;;;5.87;58.25;100807.66;4945476;23;22355;-79
2021/03/28 04:09:21;;;;;;;1.80;0.90;;;;;;;5.81;58.13;100809.09;4978558;23;20238;-80
2021/03/28 04:12:37;;;;;;;2.43;0.90;;;;;;;5.68;59.07;100814.03;4979435;23;20228;-80
2021/03/28 04:16:17;;;;;;;1.27;0.90;;;;;;;5.61;58.98;100813.81;4966772;23;20204;-79
2021/03/28 04:20:01;;;;;;;3.30;0.90;;;;;;;5.57;59.32;100825.78;4937122;23;20214;-79
2021/03/28 04:23:54;;;;;;;1.37;0.80;;;;;;;5.53;59.73;100823.59;4930814;23;20237;-80
2021/03/28 04:27:34;;;;;;;2.70;1.00;;;;;;;5.51;59.87;100829.06;4983320;23;20308;-79
2021/03/28 04:31:16;;;;;;;2.07;0.83;;;;;;;5.49;59.46;100831.06;4938099;29;20201;-79
2021/03/28 04:35:05;;;;;;;1.57;0.70;;;;;;;5.49;58.89;100833.72;4948459;23;20269;-78
2021/03/28 04:38:12;;;;;;;1.83;0.90;;;;;;;5.52;58.60;100833.38;4838750;23;20190;-78
2021/03/28 04:41:55;;;;;;;2.10;0.80;;;;;;;5.55;58.23;100841.03;4937694;23;20344;-79
2021/03/28 04:45:34;;;;;;;2.67;0.83;;;;;;;5.56;58.13;100841.88;4945039;23;20238;-78
2021/03/28 04:48:43;;;;;;;3.97;0.90;;;;;;;5.57;57.97;100849.69;4940084;29;20193;-78
2021/03/28 04:52:20;;;;;;;1.23;0.70;;;;;;;5.60;58.16;100846.72;4939528;29;20173;-78
2021/03/28 04:56:19;;;;;;;2.37;0.90;;;;;;;5.59;57.75;100845.06;4939505;23;20224;-78
2021/03/28 04:59:55;;;;;;;1.60;0.90;;;;;;;5.52;58.29;100832.53;4968363;23;20220;-79
2021/03/28 05:03:39;;;;;;;2.60;0.93;;;;;;;5.56;58.17;100848.03;4986580;23;20359;-78
2021/03/28 05:07:29;;;;;;;2.10;0.80;;;;;;;5.52;58.38;100844.03;5104822;23;20220;-79
2021/03/28 05:11:49;;;;;;;2.60;0.77;;;;;;;5.51;58.56;100860.13;5020381;23;20219;-78
2021/03/28 05:15:47;;;;;;;1.63;0.90;;;;;;;5.54;58.47;100857.16;4927965;23;20312;-78
2021/03/28 05:19:47;;;;;;;3.27;0.90;;;;;;;5.60;58.60;100851.22;4964941;23;20258;-79
2021/03/28 05:23:50;;;;;;;1.67;0.93;;;;;;;5.74;57.52;100858.59;5022182;23;20269;-78
2021/03/28 05:27:34;;;;;;;1.90;0.90;;;;;;;5.94;56.96;100864.53;4958945;29;20221;-78
2021/03/28 05:31:38;;;;;;;1.40;0.70;;;;;;;6.12;56.38;100876.75;5053756;23;20231;-78
2021/03/28 05:35:15;;;;;;;1.40;0.80;;;;;;;6.32;55.94;100877.31;4990012;23;20212;-79
2021/03/28 05:39:37;;;;;;;1.87;0.90;;;;;;;6.50;55.26;100886.03;4994953;23;20236;-78
2021/03/28 05:43:32;;;;;;;1.67;0.80;;;;;;;6.55;54.92;100891.69;4980535;23;20239;-78
2021/03/28 05:47:13;;;;;;;2.33;0.90;;;;;;;6.57;55.60;100878.22;4956806;29;20198;-78
2021/03/28 05:51:33;;;;;;;1.77;0.80;;;;;;;6.66;55.49;100881.72;4958684;29;20186;-78
2021/03/28 05:55:43;;;;;;;3.70;0.93;;;;;;;6.87;55.66;100911.38;4881370;29;20292;-78
2021/03/28 05:59:52;;;;;;;1.97;0.90;;;;;;;7.16;54.08;100902.91;4881254;29;20249;-78
2021/03/28 06:03:17;;;;;;;2.27;1.00;;;;;;;7.61;52.42;100905.03;4861074;29;20581;-79
2021/03/28 06:07:11;;;;;;;2.63;0.83;;;;;;;7.94;51.74;100904.78;4965803;23;20351;-79
2021/03/28 06:14:42;;;;;;;1.60;1.03;;;;;;;8.11;51.39;100913.59;4944888;23;20232;-78
2021/03/28 06:26:14;;;;;;;1.80;0.90;;;;;;;8.12;51.16;100927.78;4988626;23;20228;-78
2021/03/28 06:30:22;;;;;;;4.10;1.10;;;;;;;8.10;51.46;100922.59;4967546;28;20230;-78
2021/03/28 06:34:52;;;;;;;3.07;1.10;;;;;;;8.00;51.67;100926.47;4992877;28;20286;-78
2021/03/28 06:38:13;;;;;;;2.33;1.10;;;;;;;7.98;51.03;100924.78;4893579;29;20223;-79
2021/03/28 06:45:55;;;;;;;1.97;1.20;;;;;;;7.75;51.19;100931.00;4896455;29;20280;-78
2021/03/28 06:50:00;;;;;;;3.73;1.30;;;;;;;7.65;52.09;100935.72;4881179;29;20228;-78
2021/03/28 06:53:54;;;;;;;4.03;1.37;;;;;;;7.49;52.33;100942.72;4937933;23;20243;-78
2021/03/28 06:57:38;;;;;;;3.73;1.50;;;;;;;7.49;52.41;100942.72;4934012;29;20277;-79
2021/03/28 07:09:52;;;;;;;2.83;1.47;;;;;;;7.58;52.34;100943.56;5000877;23;20240;-78
2021/03/28 07:14:29;;;;;;;2.20;1.43;;;;;;;7.68;52.20;100943.38;4992697;28;20694;-79
2021/03/28 07:18:39;;;;;;;2.83;1.43;;;;;;;7.80;50.72;100952.69;4993220;23;20320;-79
2021/03/28 07:30:22;;;;;;;3.13;1.20;;;;;;;8.10;49.69;100940.44;5000229;23;20247;-79
2021/03/28 07:34:10;;;;;;;5.03;1.50;;;;;;;8.12;50.14;100947.25;5121797;23;20197;-79
2021/03/28 07:37:56;;;;;;;2.57;1.40;;;;;;;8.25;49.41;100944.91;4890870;29;20211;-78
2021/03/28 07:42:15;;;;;;;2.67;1.20;;;;;;;8.68;48.44;100948.88;4994992;23;20527;-78
2021/03/28 07:50:31;;;;;;;2.57;1.87;;;;;;;9.47;47.35;100963.72;4988883;23;20216;-78
2021/03/28 08:07:27;;;;;;;1.67;1.10;;;;;;;9.95;45.23;100986.53;4973619;29;20229;-78
2021/03/28 08:11:26;;;;;;;2.77;1.07;;;;;;;9.71;45.26;100990.25;5007414;23;20279;-79
2021/03/28 08:16:08;;;;;;;3.87;1.20;;;;;;;10.14;45.44;100998.53;4941180;23;20655;-79
2021/03/28 08:19:55;;;;;;;3.13;1.30;;;;;;;10.30;44.16;100990.38;4955852;23;20267;-78
2021/03/28 08:24:16;;;;;;;3.07;1.63;;;;;;;10.24;44.29;101003.66;4990074;23;20231;-79
2021/03/28 08:27:58;;;;;;;2.43;1.40;;;;;;;10.58;43.51;100988.69;5082944;23;20226;-79
2021/03/28 08:32:09;;;;;;;3.57;1.50;;;;;;;10.74;43.33;100997.53;4952742;23;20244;-79
2021/03/28 08:36:01;;;;;;;2.93;1.30;;;;;;;10.97;42.83;101008.94;4882076;29;20228;-79
2021/03/28 08:39:52;;;;;;;3.80;1.60;;;;;;;10.71;43.11;100996.06;4894562;29;20308;-78
2021/03/28 08:43:44;;;;;;;2.87;1.20;;;;;;;10.77;43.29;100998.00;5031040;23;20268;-78
2021/03/28 08:47:30;;;;;;;2.50;1.30;;;;;;;11.25;42.02;100995.63;4980879;23;20221;-79
2021/03/28 08:52:08;;;;;;;4.63;1.30;;;;;;;11.27;42.39;100999.81;4988108;23;20243;-79
2021/03/28 08:56:03;;;;;;;2.73;1.60;;;;;;;11.25;42.05;100988.41;5046728;23;20233;-79
2021/03/28 09:04:35;;;;;;;2.67;1.40;;;;;;;12.21;39.37;100966.31;4964606;23;20257;-79
2021/03/28 09:08:27;;;;;;;2.30;1.33;;;;;;;12.89;38.90;100977.16;5006384;23;20248;-79
2021/03/28 09:12:19;;;;;;;3.27;1.57;;;;;;;13.35;37.43;100975.44;4968271;23;20228;-80
2021/03/28 09:15:52;;;;;;;3.37;2.13;;;;;;;13.26;38.09;100963.19;4994030;28;20243;-80
2021/03/28 09:23:48;;;;;;;3.43;1.70;;;;;;;13.69;36.81;100977.13;4878621;29;20200;-79
2021/03/28 09:27:53;;;;;;;3.60;1.40;;;;;;;14.19;36.01;100959.44;4868281;23;20245;-79
2021/03/28 09:32:12;;;;;;;4.77;1.77;;;;;;;14.93;34.92;100954.41;4955266;29;20245;-79
2021/03/28 09:36:07;;;;;;;3.90;1.50;;;;;;;14.86;34.30;100955.50;4511344;27;18239946;-79
2021/03/28 09:40:07;;;;;;;2.63;1.50;;;;;;;14.72;34.22;100943.09;5104189;28;20238;-78
2021/03/28 09:43:43;;;;;;;3.50;1.97;;;;;;;14.71;34.30;100936.88;5204096;22;20244;-78
2021/03/28 09:46:58;;;;;;;3.77;1.63;;;;;;;14.77;34.04;100930.63;5106980;22;20287;-79
2021/03/28 09:50:22;;;;;;;2.77;1.37;;;;;;;14.65;35.37;100932.34;5089651;28;20196;-78
2021/03/28 09:54:29;;;;;;;2.83;1.43;;;;;;;14.97;34.69;100933.22;5096007;22;20228;-78
2021/03/28 09:58:43;;;;;;;3.33;1.60;;;;;;;15.65;33.65;100928.81;5084957;22;20531;-78
2021/03/28 10:02:11;;;;;;;3.67;1.70;;;;;;;16.29;32.04;100927.53;5053478;22;20270;-79
2021/03/28 10:06:18;;;;;;;3.80;1.70;;;;;;;16.80;31.73;100934.44;5058565;28;20288;-78
2021/03/28 10:10:29;;;;;;;2.43;1.70;;;;;;;17.42;30.65;100923.06;5105913;22;20228;-78
2021/03/28 10:14:46;;;;;;;3.43;1.60;;;;;;;16.47;31.34;100915.88;5023285;28;20679;-78
2021/03/28 10:18:42;;;;;;;4.20;1.83;;;;;;;16.45;31.69;100916.09;5002628;28;20220;-78
2021/03/28 10:22:39;;;;;;;2.87;1.60;;;;;;;16.42;31.11;100911.16;5058514;22;20242;-78
2021/03/28 10:26:18;;;;;;;5.20;1.90;;;;;;;16.38;31.48;100898.31;5063365;28;20226;-78
2021/03/28 10:29:43;;;;;;;3.33;1.90;;;;;;;17.04;30.26;100888.25;5041118;28;20259;-80
2021/03/28 10:32:58;;;;;;;5.20;1.80;;;;;;;17.01;30.03;100886.00;5044455;28;20229;-80
2021/03/28 10:36:13;;;;;;;3.20;1.63;;;;;;;17.08;30.11;100886.72;5037405;28;20655;-80
2021/03/28 10:39:03;;;;;;;5.50;2.87;;;;;;;17.10;29.21;100865.66;5028108;28;20218;-80
2021/03/28 10:42:14;;;;;;;4.93;2.23;;;;;;;17.47;29.29;100881.72;5034361;28;20227;-80
2021/03/28 10:45:28;;;;;;;4.40;1.90;;;;;;;17.60;28.83;100881.53;5066214;28;20533;-80
2021/03/28 10:48:37;;;;;;;3.70;1.80;;;;;;;17.76;28.40;100871.88;5015744;28;20319;-80
2021/03/28 10:51:19;;;;;;;3.70;1.70;;;;;;;17.83;28.71;100870.69;5000321;28;20230;-80
2021/03/28 10:54:25;;;;;;;3.93;1.70;;;;;;;17.60;29.17;100871.50;5001757;28;20230;-80
2021/03/28 10:57:45;;;;;;;4.43;2.10;;;;;;;16.13;30.83;100861.38;5039591;28;20227;-80
2021/03/28 11:01:04;;;;;;;5.53;2.07;;;;;;;16.01;31.17;100865.84;5056911;28;20315;-80
2021/03/28 11:04:29;;;;;;;5.50;1.83;;;;;;;16.72;30.63;100860.63;5016190;28;20644;-80
2021/03/28 11:08:15;;;;;;;3.77;2.00;;;;;;;17.18;29.41;100864.50;5016791;28;20229;-80
2021/03/28 11:11:09;;;;;;;5.47;1.93;;;;;;;16.60;29.99;100862.47;4997357;28;20528;-80
2021/03/28 11:13:53;;;;;;;3.37;1.60;;;;;;;16.42;30.35;100851.66;5000727;28;20220;-80
2021/03/28 11:17:19;;;;;;;3.60;1.70;;;;;;;17.55;29.88;100873.25;5019482;28;20277;-80
2021/03/28 11:20:25;;;;;;;3.87;1.73;;;;;;;17.88;28.98;100857.25;5020859;28;20225;-80
2021/03/28 11:23:35;;;;;;;7.20;6.27;;;;;;;18.07;27.72;100855.19;5050544;28;20220;-79
2021/03/28 11:26:49;;;;;;;13.37;9.53;;;;;;;18.17;27.96;100838.31;5053367;28;20251;-80
2021/03/28 11:29:55;;;;;;;97.80;74.57;;;;;;;18.19;27.36;100847.06;5035037;28;20229;-80
2021/03/28 11:32:59;;;;;;;58.20;45.93;;;;;;;18.07;27.72;100838.94;5045274;28;20514;-81
2021/03/28 11:36:04;;;;;;;15.53;13.27;;;;;;;17.56;28.62;100840.50;5054929;28;20303;-79
2021/03/28 11:39:01;;;;;;;14.73;6.43;;;;;;;17.31;29.02;100831.78;5017583;28;20247;-81
2021/03/28 11:42:45;;;;;;;3.40;2.20;;;;;;;17.00;28.34;100832.09;5008600;28;20225;-94
2021/03/28 11:46:12;;;;;;;5.13;1.80;;;;;;;16.79;28.62;100840.75;5034876;28;20278;-87
2021/03/28 11:49:25;;;;;;;3.93;1.50;;;;;;;16.49;29.58;100833.44;5031133;28;20244;-79
2021/03/28 11:53:07;;;;;;;4.27;1.90;;;;;;;16.01;30.23;100822.59;4487546;22;18711821;-78
2021/03/28 11:57:07;;;;;;;4.37;2.10;;;;;;;15.94;30.43;100821.88;5117262;22;20267;-78
2021/03/28 12:00:43;;;;;;;4.37;1.70;;;;;;;15.94;29.74;100824.59;5131589;22;20232;-77
2021/03/28 12:04:08;;;;;;;3.03;1.70;;;;;;;15.86;31.27;100822.19;5103548;22;20229;-78
2021/03/28 12:07:16;;;;;;;6.70;2.00;;;;;;;15.97;32.27;100826.00;5089349;28;20211;-78
2021/03/28 12:14:27;;;;;;;3.70;1.70;;;;;;;16.69;31.07;100816.97;5058185;22;20282;-78
2021/03/28 12:17:50;;;;;;;3.60;1.73;;;;;;;16.70;32.00;100813.22;5089178;28;20279;-78
2021/03/28 12:21:13;;;;;;;4.10;2.10;;;;;;;16.37;31.40;100813.66;5062367;28;20234;-78
2021/03/28 12:24:23;;;;;;;5.87;2.00;;;;;;;16.23;30.78;100798.66;5073986;22;20225;-78
2021/03/28 12:27:48;;;;;;;4.40;1.73;;;;;;;16.76;30.20;100817.66;5038786;28;20295;-78
2021/03/28 12:31:23;;;;;;;3.33;1.80;;;;;;;16.37;30.46;100792.00;5088079;22;20227;-83
2021/03/28 12:34:38;;;;;;;3.50;1.93;;;;;;;16.70;30.22;100814.00;5072780;23;20227;-82
2021/03/28 12:38:16;;;;;;;4.77;1.80;;;;;;;16.45;30.97;100802.50;5065229;28;20229;-78
2021/03/28 12:42:02;;;;;;;3.50;1.90;;;;;;;16.84;31.02;100809.25;5041748;23;20241;-78
2021/03/28 12:45:59;;;;;;;3.93;1.80;;;;;;;17.07;30.36;100803.03;5070700;22;20234;-78
2021/03/28 12:49:44;;;;;;;4.47;1.87;;;;;;;17.01;30.47;100793.97;5107535;28;20221;-78
2021/03/28 12:53:19;;;;;;;3.90;1.90;;;;;;;17.40;30.33;100787.03;5107543;28;20229;-78
2021/03/28 12:56:36;;;;;;;4.50;1.73;;;;;;;18.11;27.45;100799.41;5098868;22;20227;-79
2021/03/28 12:59:41;;;;;;;4.50;2.00;;;;;;;18.95;26.05;100788.75;5092090;28;20289;-91
2021/03/28 13:02:40;;;;;;;5.80;1.80;;;;;;;19.34;26.34;100785.88;5087638;28;20227;-95
2021/03/28 13:05:35;;;;;;;2.43;1.57;;;;;;;19.45;26.20;100781.47;5058542;28;20232;-92
2021/03/28 13:08:21;;;;;;;3.23;1.70;;;;;;;19.71;25.45;100783.44;5041765;28;20288;-96
2021/03/28 13:11:04;;;;;;;4.30;1.60;;;;;;;19.49;25.46;100760.84;5043127;28;20263;-88
2021/03/28 13:13:45;;;;;;;5.67;1.70;;;;;;;19.58;25.80;100777.56;5045673;28;20658;-84
2021/03/28 13:16:28;;;;;;;3.07;1.50;;;;;;;19.58;26.03;100778.38;5045950;28;20283;-84
2021/03/28 13:19:08;;;;;;;4.33;1.90;;;;;;;19.20;25.50;100764.75;5053575;28;20220;-92
2021/03/28 13:21:48;;;;;;;3.30;1.60;;;;;;;18.49;26.05;100749.94;5033640;28;20220;-86
2021/03/28 13:24:39;;;;;;;2.77;1.80;;;;;;;18.20;26.20;100765.41;5024344;28;20283;-91
2021/03/28 13:27:24;;;;;;;3.10;1.40;;;;;;;17.37;27.85;100759.59;5054588;28;20256;-91
2021/03/28 13:30:17;;;;;;;5.37;1.70;;;;;;;17.74;27.03;100750.13;5056669;28;20233;-87
2021/03/28 13:33:00;;;;;;;4.57;1.60;;;;;;;17.69;27.34;100760.88;5042017;28;20218;-92
2021/03/28 13:35:50;;;;;;;3.80;1.73;;;;;;;17.73;26.73;100762.03;5041223;28;20716;-90
2021/03/28 13:38:39;;;;;;;4.00;1.50;;;;;;;17.63;27.60;100778.09;5056325;28;20256;-94
2021/03/28 13:41:32;;;;;;;5.13;1.67;;;;;;;17.49;27.59;100761.25;5044403;28;20221;-92
2021/03/28 13:44:32;;;;;;;4.00;1.73;;;;;;;17.65;27.55;100756.97;5055633;28;20241;-90
2021/03/28 13:47:16;;;;;;;3.50;1.47;;;;;;;17.73;27.21;100723.28;5040721;28;20233;-87
2021/03/28 13:50:33;;;;;;;3.90;2.00;;;;;;;17.62;27.23;100751.22;5036323;28;20663;-85
2021/03/28 13:53:36;;;;;;;4.30;1.90;;;;;;;17.84;27.19;100763.06;5059891;28;20216;-91
2021/03/28 13:56:39;;;;;;;3.93;1.70;;;;;;;17.47;27.73;100763.34;5020322;28;20313;-85
2021/03/28 13:59:42;;;;;;;4.17;1.80;;;;;;;17.35;27.65;100735.47;5041774;28;20526;-89
2021/03/28 14:02:31;;;;;;;4.90;2.60;;;;;;;17.75;27.65;100732.81;5056234;28;20720;-89
2021/03/28 14:05:26;;;;;;;6.97;5.07;;;;;;;17.45;27.63;100749.19;5043769;28;20230;-87
2021/03/28 14:08:20;;;;;;;4.00;1.80;;;;;;;17.29;27.14;100736.41;5035490;28;20676;-88
2021/03/28 14:11:14;;;;;;;4.37;1.80;;;;;;;17.41;27.12;100745.31;5038520;28;20221;-92
2021/03/28 14:14:41;;;;;;;4.53;3.97;;;;;;;17.72;27.04;100735.19;5054683;28;20645;-91
2021/03/28 14:17:35;;;;;;;4.87;1.80;;;;;;;17.96;26.44;100718.59;4980876;28;20259;-90
2021/03/28 14:20:35;;;;;;;3.50;2.93;;;;;;;18.11;26.39;100722.66;5045510;28;20280;-93
2021/03/28 14:23:23;;;;;;;5.37;1.80;;;;;;;18.16;26.25;100711.91;5020439;28;20699;-89
2021/03/28 14:26:16;;;;;;;3.53;1.50;;;;;;;18.51;25.63;100725.28;5037315;28;20500;-86
2021/03/28 14:29:07;;;;;;;3.83;1.67;;;;;;;18.25;26.53;100697.72;5056563;28;20221;-91
2021/03/28 14:32:16;;;;;;;4.80;1.50;;;;;;;17.55;25.91;100700.66;5035340;28;20305;-91
2021/03/28 14:35:12;;;;;;;2.77;1.67;;;;;;;17.32;27.54;100714.25;5040859;28;20647;-89
2021/03/28 14:38:42;;;;;;;4.93;1.87;;;;;;;17.08;27.97;100713.44;5055320;28;20222;-87
2021/03/28 14:42:13;;;;;;;2.83;1.77;;;;;;;17.12;27.65;100705.69;5029570;28;20233;-92
2021/03/28 14:45:42;;;;;;;3.80;1.50;;;;;;;16.68;28.27;100705.19;5055385;28;20244;-80
2021/03/28 14:48:47;;;;;;;3.03;1.50;;;;;;;16.30;28.69;100699.31;5058585;28;20205;-80
2021/03/28 14:52:33;;;;;;;3.10;1.50;;;;;;;16.06;29.25;100703.00;5099885;22;20671;-78
2021/03/28 14:56:30;;;;;;;2.93;1.67;;;;;;;15.80;30.10;100693.38;5102483;22;20231;-79
2021/03/28 15:00:36;;;;;;;3.00;1.67;;;;;;;15.92;29.53;100691.53;5105246;28;20230;-77
2021/03/28 15:04:02;;;;;;;4.97;1.87;;;;;;;15.40;30.57;100680.31;5114320;28;20217;-78
2021/03/28 15:08:11;;;;;;;4.00;1.83;;;;;;;15.09;31.21;100679.63;5115971;22;20230;-78
2021/03/28 15:11:48;;;;;;;3.73;1.20;;;;;;;15.13;30.67;100689.75;5096156;22;20610;-78
2021/03/28 15:19:35;;;;;;;4.67;1.90;;;;;;;15.72;30.44;100691.78;5068790;22;20225;-78
2021/03/28 15:23:14;;;;;;;3.83;1.63;;;;;;;15.23;31.14;100691.94;5113433;28;20222;-78
2021/03/28 15:27:41;;;;;;;3.57;1.60;;;;;;;15.24;31.86;100693.59;5095513;28;20281;-78
2021/03/28 15:32:03;;;;;;;4.30;1.73;;;;;;;14.88;31.67;100691.69;5202349;22;20237;-79
2021/03/28 15:36:02;;;;;;;3.90;1.80;;;;;;;14.73;32.61;100707.38;5116453;22;20233;-78
2021/03/28 15:39:54;;;;;;;2.70;1.50;;;;;;;14.59;32.33;100700.44;5094313;22;20313;-79
2021/03/28 15:43:40;;;;;;;4.07;2.40;;;;;;;14.52;33.02;100701.31;5093160;28;20184;-79
2021/03/28 15:48:02;;;;;;;4.70;2.40;;;;;;;14.94;32.92;100696.19;5092968;28;20225;-78
2021/03/28 15:51:52;;;;;;;4.53;1.63;;;;;;;15.41;31.85;100692.78;5087475;28;20252;-79
2021/03/28 15:55:41;;;;;;;3.73;1.57;;;;;;;15.35;32.01;100690.97;5163867;22;20186;-78
2021/03/28 15:59:44;;;;;;;3.20;1.53;;;;;;;15.35;32.77;100699.06;5071648;28;20210;-78
2021/03/28 16:03:35;;;;;;;3.57;1.60;;;;;;;15.19;33.76;100702.38;5091080;22;20231;-79
2021/03/28 16:07:15;;;;;;;3.07;1.63;;;;;;;15.14;34.17;100701.38;5091852;22;20273;-79
2021/03/28 16:10:52;;;;;;;3.53;1.70;;;;;;;15.09;34.47;100706.63;5080174;28;20240;-79
2021/03/28 16:14:43;;;;;;;3.83;2.30;;;;;;;14.89;34.43;100707.63;5111918;22;20230;-78
2021/03/28 16:18:41;;;;;;;3.93;1.70;;;;;;;14.68;34.85;100702.66;5081263;22;20196;-78
2021/03/28 16:22:04;;;;;;;4.43;1.80;;;;;;;14.45;35.48;100705.94;5054393;28;20205;-79
2021/03/28 16:26:00;;;;;;;4.37;1.80;;;;;;;14.26;35.32;100700.66;5083919;28;20205;-78
2021/03/28 16:29:31;;;;;;;2.47;1.40;;;;;;;14.01;36.22;100698.72;5099011;22;20213;-79
2021/03/28 16:33:17;;;;;;;3.67;1.87;;;;;;;13.77;37.08;100696.78;4511658;27;17998671;-78
2021/03/28 16:41:34;;;;;;;1.90;1.30;;;;;;;13.25;38.41;100688.94;5058305;22;20209;-78
2021/03/28 16:46:05;;;;;;;3.43;1.70;;;;;;;12.84;39.26;100691.84;5079914;28;20229;-77
2021/03/28 16:50:08;;;;;;;1.93;1.40;;;;;;;12.49;40.09;100694.75;5071706;28;20659;-78
2021/03/28 16:53:50;;;;;;;4.40;1.90;;;;;;;12.17;40.63;100696.38;5068312;22;20222;-79
2021/03/28 16:57:13;;;;;;;3.70;1.70;;;;;;;11.94;40.99;100695.94;5081749;22;20224;31
2021/03/28 17:00:52;;;;;;;5.13;1.70;;;;;;;11.69;41.60;100694.75;4999146;28;20217;-78
2021/03/28 17:03:41;;;;;;;3.83;1.70;;;;;;;11.47;42.42;100699.44;5070927;22;20228;-78
2021/03/28 17:06:49;;;;;;;3.47;1.70;;;;;;;11.30;42.76;100698.09;5079149;28;20301;-78
2021/03/28 17:10:41;;;;;;;3.93;1.70;;;;;;;11.06;43.88;100702.06;5163241;22;20228;-78
2021/03/28 17:14:31;;;;;;;4.20;1.70;;;;;;;10.86;44.38;100699.28;5058152;22;20237;-79
2021/03/28 17:17:48;;;;;;;3.80;1.90;;;;;;;10.67;45.23;100699.13;5065348;22;20267;-79
2021/03/28 17:21:37;;;;;;;8.53;1.87;;;;;;;10.42;47.27;100704.91;5075206;22;20209;-79
2021/03/28 17:25:34;;;;;;;6.37;2.00;;;;;;;10.11;48.49;100710.56;5100547;22;20550;-79
2021/03/28 17:29:27;;;;;;;4.07;1.90;;;;;;;9.79;48.54;100694.97;5026821;28;20219;-79
2021/03/28 17:32:52;;;;;;;4.20;1.93;;;;;;;9.57;49.31;100701.25;5029150;28;20250;-79
2021/03/28 17:36:39;;;;;;;4.47;2.40;;;;;;;9.46;49.84;100709.78;4970401;28;20239;-78
2021/03/28 17:40:54;;;;;;;3.53;2.07;;;;;;;9.29;50.88;100717.16;4980581;28;20200;-78
2021/03/28 17:44:32;;;;;;;5.00;1.90;;;;;;;9.02;51.30;100699.91;4968295;28;20196;-78
2021/03/28 17:47:58;;;;;;;4.53;2.13;;;;;;;8.98;52.54;100727.19;4977765;29;20252;-78
2021/03/28 17:51:54;;;;;;;4.60;2.27;;;;;;;8.77;52.50;100731.38;5077094;22;20205;-79
2021/03/28 17:55:32;;;;;;;6.00;1.97;;;;;;;8.63;52.18;100732.19;4981486;28;20713;-78
2021/03/28 17:58:51;;;;;;;4.67;1.83;;;;;;;8.50;52.92;100731.97;5029705;28;20218;-78
2021/03/28 18:02:35;;;;;;;5.13;2.67;;;;;;;8.32;53.93;100726.09;5032503;28;20229;-78
2021/03/28 18:05:44;;;;;;;10.33;6.27;;;;;;;8.09;55.73;100727.91;5030464;23;20222;-78
2021/03/28 18:09:07;;;;;;;8.90;5.97;;;;;;;8.09;57.14;100755.44;5046705;22;20232;-78
2021/03/28 18:12:47;;;;;;;8.27;5.10;;;;;;;7.94;56.34;100747.34;5022335;23;20227;-79
2021/03/28 18:16:23;;;;;;;5.80;3.27;;;;;;;7.83;57.27;100745.09;5045113;23;20241;-78